createdAt,value
2016-02-22T00:00:16.395Z,10.79
2016-02-22T00:00:48.379Z,10.89
2016-02-22T00:01:51.476Z,10.89
2016-02-22T00:02:32.307Z,10.89
2016-02-22T00:04:23.671Z,10.86
2016-02-22T00:04:39.500Z,10.83
2016-02-22T00:06:33.461Z,10.69
2016-02-22T00:06:46.070Z,10.86
2016-02-22T00:08:43.013Z,10.77
2016-02-22T00:08:55.591Z,10.92
2016-02-22T00:11:05.162Z,10.82
2016-02-22T00:13:20.355Z,10.87
2016-02-22T00:14:20.358Z,10.86
2016-02-22T00:15:20.422Z,10.89
2016-02-22T00:16:29.993Z,10.89
2016-02-22T00:17:39.542Z,10.89
2016-02-22T00:19:05.219Z,10.87
2016-02-22T00:19:46.469Z,10.9
2016-02-22T00:21:14.787Z,10.87
2016-02-22T00:21:53.021Z,10.84
2016-02-22T00:23:18.699Z,10.95
2016-02-22T00:24:00.621Z,10.89
2016-02-22T00:26:12.801Z,10.95
2016-02-22T00:27:12.788Z,10.84
2016-02-22T00:29:15.418Z,10.92
2016-02-22T00:29:53.715Z,10.95
2016-02-22T00:30:28.015Z,10.92
2016-02-22T00:32:30.661Z,10.98
2016-02-22T00:33:08.898Z,10.87
2016-02-22T00:33:43.257Z,10.87
2016-02-22T00:35:52.825Z,10.87
2016-02-22T00:38:02.377Z,10.87
2016-02-22T00:39:33.820Z,10.87
2016-02-22T00:40:12.058Z,10.92
2016-02-22T00:41:43.388Z,10.92
2016-02-22T00:42:21.672Z,10.95
2016-02-22T00:44:24.897Z,10.87
2016-02-22T00:44:37.459Z,10.79
2016-02-22T00:45:37.477Z,10.77
2016-02-22T00:46:37.729Z,10.84
2016-02-22T00:47:50.264Z,10.82
2016-02-22T00:48:50.297Z,10.84
2016-02-22T00:49:56.769Z,10.89
2016-02-22T00:51:03.259Z,10.83
2016-02-22T00:53:04.154Z,10.84
2016-02-22T00:53:48.060Z,10.8
2016-02-22T00:54:57.641Z,10.76
2016-02-22T00:55:57.707Z,10.72
2016-02-22T00:56:26.397Z,10.82
2016-02-22T00:57:26.228Z,10.82
2016-02-22T00:58:38.809Z,10.75
2016-02-22T00:59:35.811Z,10.75
2016-02-22T01:00:48.596Z,10.82
2016-02-22T01:02:02.942Z,10.83
2016-02-22T01:04:48.029Z,10.86
2016-02-22T01:05:16.750Z,10.8
2016-02-22T01:07:29.521Z,10.8
2016-02-22T01:08:16.836Z,10.77
2016-02-22T01:10:13.809Z,10.83
2016-02-22T01:10:45.544Z,10.76
2016-02-22T01:13:33.489Z,10.77
2016-02-22T01:14:02.192Z,10.79
2016-02-22T01:15:02.211Z,10.72
2016-02-22T01:16:02.230Z,10.76
2016-02-22T01:17:02.857Z,10.77
2016-02-22T01:18:09.144Z,10.77
2016-02-22T01:19:15.037Z,10.77
2016-02-22T01:20:15.055Z,10.75
2016-02-22T01:22:31.138Z,10.76
2016-02-22T01:23:11.969Z,10.68
2016-02-22T01:24:37.660Z,10.75
2016-02-22T01:25:19.678Z,10.72
2016-02-22T01:27:27.215Z,10.75
2016-02-22T01:28:27.374Z,10.76
2016-02-22T01:29:27.829Z,10.65
2016-02-22T01:30:27.426Z,10.64
2016-02-22T01:31:40.023Z,10.65
2016-02-22T01:32:27.306Z,10.67
2016-02-22T01:33:53.012Z,10.67
2016-02-22T01:34:39.921Z,10.62
2016-02-22T01:35:56.095Z,10.62
2016-02-22T01:36:36.989Z,10.67
2016-02-22T01:38:39.557Z,10.61
2016-02-22T01:38:52.120Z,10.67
2016-02-22T01:39:52.153Z,10.57
2016-02-22T01:41:04.893Z,10.58
2016-02-22T01:41:52.175Z,10.61
2016-02-22T01:43:04.930Z,10.59
2016-02-22T01:43:53.023Z,10.59
2016-02-22T01:45:49.216Z,10.53
2016-02-22T01:46:27.235Z,10.59
2016-02-22T01:47:14.519Z,10.57
2016-02-22T01:48:14.553Z,10.62
2016-02-22T01:49:20.852Z,10.57
2016-02-22T01:50:14.589Z,10.55
2016-02-22T01:52:29.797Z,10.61
2016-02-22T01:53:29.832Z,10.59
2016-02-22T01:54:36.100Z,10.58
2016-02-22T01:55:29.852Z,10.49
2016-02-22T01:56:49.121Z,10.48
2016-02-22T01:57:29.890Z,10.49
2016-02-22T01:58:29.923Z,10.51
2016-02-22T01:59:36.207Z,10.53
2016-02-22T02:00:42.726Z,10.49
2016-02-22T02:01:29.978Z,10.42
2016-02-22T02:02:55.684Z,10.42
2016-02-22T02:03:42.609Z,10.46
2016-02-22T02:05:01.815Z,10.43
2016-02-22T02:05:51.973Z,10.43
2016-02-22T02:06:45.695Z,10.49
2016-02-22T02:07:45.776Z,10.46
2016-02-22T02:08:58.465Z,10.45
2016-02-22T02:09:45.968Z,10.51
2016-02-22T02:11:11.458Z,10.41
2016-02-22T02:11:45.786Z,10.41
2016-02-22T02:12:45.805Z,10.48
2016-02-22T02:13:45.823Z,10.39
2016-02-22T02:14:45.872Z,10.39
2016-02-22T02:15:52.234Z,10.53
2016-02-22T02:16:58.721Z,10.42
2016-02-22T02:17:58.646Z,10.41
2016-02-22T02:18:45.930Z,10.42
2016-02-22T02:19:45.963Z,10.42
2016-02-22T02:21:05.157Z,10.45
2016-02-22T02:21:47.422Z,10.39
2016-02-22T02:23:11.677Z,10.36
2016-02-22T02:23:49.068Z,10.39
2016-02-22T02:24:46.056Z,10.39
2016-02-22T02:25:58.824Z,10.39
2016-02-22T02:26:46.093Z,10.45
2016-02-22T02:28:05.316Z,10.33
2016-02-22T02:28:47.566Z,10.45
2016-02-22T02:30:55.713Z,10.41
2016-02-22T02:31:55.684Z,10.38
2016-02-22T02:33:08.455Z,10.39
2016-02-22T02:34:08.504Z,10.43
2016-02-22T02:35:14.976Z,10.45
2016-02-22T02:35:59.007Z,10.31
2016-02-22T02:36:59.041Z,10.13
2016-02-22T02:37:59.043Z,9.87
2016-02-22T02:39:05.315Z,9.76
2016-02-22T02:39:59.096Z,9.63
2016-02-22T02:41:11.836Z,9.54
2016-02-22T02:42:05.386Z,9.29
2016-02-22T02:43:18.341Z,9.29
2016-02-22T02:44:18.359Z,9.19
2016-02-22T02:45:25.080Z,9.19
2016-02-22T02:45:59.205Z,9.19
2016-02-22T02:47:59.242Z,8.99
2016-02-22T02:48:59.307Z,9
2016-02-22T02:49:59.279Z,9.13
2016-02-22T02:50:59.297Z,9.09
2016-02-22T02:52:06.177Z,9.12
2016-02-22T02:53:00.755Z,9.13
2016-02-22T02:54:12.088Z,8.97
2016-02-22T02:55:02.401Z,9.08
2016-02-22T02:56:18.626Z,9
2016-02-22T02:57:18.629Z,8.89
2016-02-22T02:58:30.724Z,8.92
2016-02-22T02:59:30.759Z,8.84
2016-02-22T03:00:09.012Z,8.84
2016-02-22T03:01:08.998Z,8.79
2016-02-22T03:02:43.376Z,8.77
2016-02-22T03:03:21.598Z,8.78
2016-02-22T03:04:21.663Z,8.79
2016-02-22T03:05:37.526Z,8.75
2016-02-22T03:06:31.090Z,8.77
2016-02-22T03:07:50.593Z,8.71
2016-02-22T03:08:37.502Z,8.75
2016-02-22T03:09:34.489Z,8.71
2016-02-22T03:10:34.507Z,8.64
2016-02-22T03:11:35.167Z,8.63
2016-02-22T03:12:34.559Z,8.53
2016-02-22T03:13:34.687Z,8.56
2016-02-22T03:14:47.314Z,8.66
2016-02-22T03:15:47.334Z,8.59
2016-02-22T03:17:00.320Z,8.54
2016-02-22T03:18:00.307Z,8.57
2016-02-22T03:19:05.966Z,8.57
2016-02-22T03:20:34.691Z,8.59
2016-02-22T03:21:34.724Z,8.59
2016-02-22T03:22:34.931Z,8.52
2016-02-22T03:23:34.964Z,8.44
2016-02-22T03:24:54.013Z,8.5
2016-02-22T03:25:35.391Z,8.52
2016-02-22T03:27:06.129Z,8.42
2016-02-22T03:27:34.850Z,8.42
2016-02-22T03:28:34.852Z,8.42
2016-02-22T03:29:47.605Z,8.34
2016-02-22T03:30:34.874Z,8.39
2016-02-22T03:31:54.096Z,8.39
2016-02-22T03:32:50.707Z,8.35
2016-02-22T03:34:03.694Z,8.24
2016-02-22T03:35:13.043Z,8.32
2016-02-22T03:36:06.781Z,8.32
2016-02-22T03:37:19.564Z,8.26
2016-02-22T03:38:13.098Z,8.24
2016-02-22T03:39:06.867Z,8.23
2016-02-22T03:40:26.073Z,8.18
2016-02-22T03:41:07.106Z,8.2
2016-02-22T03:42:32.562Z,8.2
2016-02-22T03:43:38.690Z,8.17
2016-02-22T03:44:16.442Z,8.17
2016-02-22T03:46:57.354Z,8.17
2016-02-22T03:47:31.686Z,8.18
2016-02-22T03:49:47.066Z,8.09
2016-02-22T03:50:47.114Z,8.14
2016-02-22T03:51:47.305Z,8.08
2016-02-22T03:52:50.417Z,8.08
2016-02-22T03:53:50.514Z,8.02
2016-02-22T03:55:03.157Z,8.03
2016-02-22T03:56:03.238Z,8.05
2016-02-22T03:57:47.431Z,8.08
2016-02-22T03:58:25.558Z,8.06
2016-02-22T03:59:12.764Z,8.03
2016-02-22T04:00:25.580Z,7.98
2016-02-22T04:01:12.801Z,7.91
2016-02-22T04:02:12.647Z,7.93
2016-02-22T04:03:19.072Z,7.91
2016-02-22T04:04:25.590Z,7.99
2016-02-22T04:05:32.062Z,7.95
2016-02-22T04:06:32.096Z,7.96
2016-02-22T04:08:12.960Z,7.99
2016-02-22T04:10:22.528Z,8.01
2016-02-22T04:10:57.606Z,7.96
2016-02-22T04:12:29.659Z,7.88
2016-02-22T04:13:36.193Z,7.9
2016-02-22T04:14:32.789Z,7.84
2016-02-22T04:15:20.057Z,7.88
2016-02-22T04:17:17.703Z,7.84
2016-02-22T04:17:30.281Z,7.78
2016-02-22T04:19:27.271Z,7.72
2016-02-22T04:19:40.130Z,7.83
2016-02-22T04:21:43.370Z,7.74
2016-02-22T04:21:55.948Z,7.72
2016-02-22T04:22:55.935Z,7.77
2016-02-22T04:24:08.706Z,7.74
2016-02-22T04:24:56.191Z,7.59
2016-02-22T04:26:15.211Z,7.64
2016-02-22T04:27:19.558Z,7.67
2016-02-22T04:28:19.826Z,7.67
2016-02-22T04:29:22.907Z,7.62
2016-02-22T04:30:16.472Z,7.64
2016-02-22T04:31:29.413Z,7.64
2016-02-22T04:32:26.056Z,7.61
2016-02-22T04:33:13.309Z,7.51
2016-02-22T04:34:26.077Z,7.61
2016-02-22T04:35:14.767Z,7.53
2016-02-22T04:36:39.020Z,7.51
2016-02-22T04:37:22.898Z,7.56
2016-02-22T04:38:48.588Z,7.58
2016-02-22T04:39:32.465Z,7.53
2016-02-22T04:41:42.205Z,7.41
2016-02-22T04:43:32.726Z,7.5
2016-02-22T04:44:48.041Z,7.39
2016-02-22T04:45:47.920Z,7.44
2016-02-22T04:46:54.219Z,7.41
2016-02-22T04:47:48.206Z,7.36
2016-02-22T04:49:00.724Z,7.41
2016-02-22T04:49:48.446Z,7.32
2016-02-22T04:51:07.214Z,7.37
2016-02-22T04:51:49.466Z,7.37
2016-02-22T04:53:13.721Z,7.31
2016-02-22T04:53:57.627Z,7.36
2016-02-22T04:54:57.631Z,7.28
2016-02-22T04:56:03.758Z,7.32
2016-02-22T04:57:26.452Z,7.18
2016-02-22T04:58:13.485Z,7.14
2016-02-22T04:59:32.082Z,7.14
2016-02-22T05:00:08.506Z,7.07
2016-02-22T05:02:15.996Z,6.93
2016-02-22T05:03:16.077Z,7.03
2016-02-22T05:04:47.332Z,6.95
2016-02-22T05:05:25.646Z,6.89
2016-02-22T05:08:06.449Z,6.85
2016-02-22T05:08:40.811Z,6.85
2016-02-22T05:10:06.486Z,6.87
2016-02-22T05:11:16.131Z,6.82
2016-02-22T05:12:51.150Z,6.8
2016-02-22T05:13:29.434Z,6.64
2016-02-22T05:15:26.392Z,6.74
2016-02-22T05:15:39.798Z,6.75
2016-02-22T05:17:39.804Z,6.72
2016-02-22T05:18:39.869Z,6.62
2016-02-22T05:19:39.855Z,6.67
2016-02-22T05:20:39.843Z,6.65
2016-02-22T05:21:52.628Z,6.71
2016-02-22T05:22:39.880Z,6.71
2016-02-22T05:24:05.679Z,6.72
2016-02-22T05:25:15.247Z,6.7
2016-02-22T05:27:02.359Z,6.7
2016-02-22T05:28:11.944Z,6.8
2016-02-22T05:29:09.383Z,6.68
2016-02-22T05:30:50.229Z,6.67
2016-02-22T05:31:46.873Z,6.7
2016-02-22T05:33:31.143Z,6.83
2016-02-22T05:34:04.331Z,6.83
2016-02-22T05:36:43.871Z,6.85
2016-02-22T05:37:18.170Z,6.78
2016-02-22T05:39:16.581Z,6.85
2016-02-22T05:39:30.566Z,6.89
2016-02-22T05:41:31.790Z,6.95
2016-02-22T05:41:44.478Z,6.85
2016-02-22T05:42:44.465Z,6.89
2016-02-22T05:44:09.955Z,6.86
2016-02-22T05:45:20.129Z,6.87
2016-02-22T05:45:54.473Z,6.78
2016-02-22T05:46:54.491Z,6.74
2016-02-22T05:48:20.169Z,6.68
2016-02-22T05:49:29.734Z,6.74
2016-02-22T05:50:39.205Z,6.7
2016-02-22T05:51:48.864Z,6.71
2016-02-22T05:52:23.227Z,6.72
2016-02-22T05:53:54.525Z,6.64
2016-02-22T05:54:32.794Z,6.72
2016-02-22T05:56:35.425Z,6.71
2016-02-22T05:57:13.661Z,6.72
2016-02-22T05:57:48.036Z,6.71
2016-02-22T05:59:13.699Z,6.64
2016-02-22T05:59:57.605Z,6.71
2016-02-22T06:00:57.607Z,6.71
2016-02-22T06:03:00.237Z,6.67
2016-02-22T06:03:38.647Z,6.65
2016-02-22T06:04:12.821Z,6.6
2016-02-22T06:05:38.636Z,6.62
2016-02-22T06:06:48.358Z,6.59
2016-02-22T06:07:45.032Z,6.64
2016-02-22T06:08:51.487Z,6.62
2016-02-22T06:09:51.502Z,6.56
2016-02-22T06:11:03.587Z,6.46
2016-02-22T06:12:06.654Z,6.39
2016-02-22T06:12:47.456Z,6.47
2016-02-22T06:14:13.142Z,6.5
2016-02-22T06:14:51.361Z,6.54
2016-02-22T06:16:22.701Z,6.54
2016-02-22T06:17:06.810Z,6.38
2016-02-22T06:18:06.559Z,6.47
2016-02-22T06:19:06.775Z,6.54
2016-02-22T06:20:06.602Z,6.53
2016-02-22T06:21:19.527Z,6.43
2016-02-22T06:22:13.105Z,6.43
2016-02-22T06:23:26.029Z,6.44
2016-02-22T06:24:19.594Z,6.47
2016-02-22T06:25:32.516Z,6.38
2016-02-22T06:26:29.112Z,6.36
2016-02-22T06:28:32.569Z,6.49
2016-02-22T06:28:51.616Z,6.36
2016-02-22T06:29:51.634Z,6.43
2016-02-22T06:31:04.355Z,6.44
2016-02-22T06:32:04.186Z,6.41
2016-02-22T06:33:10.752Z,6.41
2016-02-22T06:34:10.786Z,6.41
2016-02-22T06:35:17.242Z,6.39
2016-02-22T06:35:51.585Z,6.41
2016-02-22T06:37:17.232Z,6.41
2016-02-22T06:38:01.107Z,6.47
2016-02-22T06:39:01.140Z,6.46
2016-02-22T06:40:13.896Z,6.36
2016-02-22T06:41:26.837Z,6.43
2016-02-22T06:42:36.307Z,6.52
2016-02-22T06:43:36.497Z,6.49
2016-02-22T06:46:23.006Z,6.49
2016-02-22T06:46:57.350Z,6.5
2016-02-22T06:47:57.400Z,6.53
2016-02-22T06:48:57.403Z,6.56
2016-02-22T06:50:10.170Z,6.52
2016-02-22T06:51:03.703Z,6.53
2016-02-22T06:52:16.679Z,6.47
2016-02-22T06:53:26.244Z,6.47
2016-02-22T06:54:19.793Z,6.5
2016-02-22T06:56:06.280Z,6.47
2016-02-22T06:56:41.299Z,6.46
2016-02-22T06:58:41.304Z,6.43
2016-02-22T06:59:35.057Z,6.38
2016-02-22T07:00:47.794Z,6.41
2016-02-22T07:01:47.858Z,6.41
2016-02-22T07:02:35.096Z,6.44
2016-02-22T07:04:00.833Z,6.41
2016-02-22T07:04:47.882Z,6.52
2016-02-22T07:06:00.838Z,6.47
2016-02-22T07:06:35.185Z,6.36
2016-02-22T07:07:35.172Z,6.39
2016-02-22T07:08:35.190Z,6.39
2016-02-22T07:09:41.505Z,6.41
2016-02-22T07:10:41.507Z,6.39
2016-02-22T07:11:35.245Z,6.39
2016-02-22T07:12:48.013Z,6.41
2016-02-22T07:13:35.281Z,6.34
2016-02-22T07:14:54.518Z,6.34
2016-02-22T07:16:04.115Z,6.31
2016-02-22T07:16:57.649Z,6.34
2016-02-22T07:18:09.776Z,6.36
2016-02-22T07:18:41.514Z,6.38
2016-02-22T07:20:48.159Z,6.36
2016-02-22T07:22:52.164Z,6.36
2016-02-22T07:23:30.418Z,6.35
2016-02-22T07:24:04.762Z,6.36
2016-02-22T07:26:07.391Z,6.43
2016-02-22T07:26:39.192Z,6.35
2016-02-22T07:27:19.991Z,6.35
2016-02-22T07:29:18.402Z,6.43
2016-02-22T07:29:30.949Z,6.36
2016-02-22T07:30:30.984Z,6.38
2016-02-22T07:31:43.752Z,6.36
2016-02-22T07:32:31.629Z,6.32
2016-02-22T07:33:50.242Z,6.35
2016-02-22T07:34:31.041Z,6.39
2016-02-22T07:35:56.732Z,6.38
2016-02-22T07:37:06.296Z,6.38
2016-02-22T07:37:40.627Z,6.39
2016-02-22T07:40:21.745Z,6.41
2016-02-22T07:40:56.042Z,6.44
2016-02-22T07:42:27.219Z,6.32
2016-02-22T07:43:05.454Z,6.35
2016-02-22T07:44:36.787Z,6.35
2016-02-22T07:45:20.681Z,6.38
2016-02-22T07:46:39.917Z,6.39
2016-02-22T07:47:55.092Z,6.32
2016-02-22T07:48:43.017Z,6.38
2016-02-22T07:49:55.128Z,6.41
2016-02-22T07:50:52.569Z,6.36
2016-02-22T07:52:04.681Z,6.39
2016-02-22T07:52:58.887Z,6.39
2016-02-22T07:53:33.405Z,6.34
2016-02-22T07:54:48.595Z,6.39
2016-02-22T07:55:48.692Z,6.41
2016-02-22T07:56:48.616Z,6.39
2016-02-22T07:57:54.931Z,6.44
2016-02-22T07:58:54.934Z,6.44
2016-02-22T08:00:06.983Z,6.38
2016-02-22T08:01:04.439Z,6.38
2016-02-22T08:03:38.838Z,6.43
2016-02-22T08:04:19.637Z,6.44
2016-02-22T08:06:55.346Z,6.5
2016-02-22T08:07:29.692Z,6.53
2016-02-22T08:09:01.024Z,6.41
2016-02-22T08:09:36.105Z,6.53
2016-02-22T08:11:45.000Z,6.49
2016-02-22T08:12:44.925Z,6.46
2016-02-22T08:13:44.943Z,6.41
2016-02-22T08:14:44.976Z,6.52
2016-02-22T08:15:57.729Z,6.53
2016-02-22T08:16:57.748Z,6.5
2016-02-22T08:17:45.032Z,6.43
2016-02-22T08:19:04.253Z,6.56
2016-02-22T08:19:51.334Z,6.46
2016-02-22T08:21:10.759Z,6.49
2016-02-22T08:22:04.324Z,6.53
2016-02-22T08:23:19.517Z,6.44
2016-02-22T08:24:19.551Z,6.5
2016-02-22T08:25:19.538Z,6.36
2016-02-22T08:26:19.759Z,6.36
2016-02-22T08:27:19.574Z,6.41
2016-02-22T08:28:19.592Z,6.36
2016-02-22T08:29:19.611Z,6.49
2016-02-22T08:30:32.380Z,6.52
2016-02-22T08:31:26.054Z,6.49
2016-02-22T08:32:38.900Z,6.44
2016-02-22T08:33:42.122Z,6.46
2016-02-22T08:34:22.983Z,6.39
2016-02-22T08:36:19.943Z,6.28
2016-02-22T08:36:58.193Z,6.29
2016-02-22T08:37:32.554Z,6.2
2016-02-22T08:39:35.169Z,6.2
2016-02-22T08:39:47.872Z,6.16
2016-02-22T08:40:47.844Z,6.2
2016-02-22T08:41:47.863Z,6.2
2016-02-22T08:42:54.193Z,6.29
2016-02-22T08:43:54.165Z,6.25
2016-02-22T08:45:07.090Z,6.35
2016-02-22T08:46:07.154Z,6.38
2016-02-22T08:46:47.938Z,6.49
2016-02-22T08:48:19.287Z,6.41
2016-02-22T08:48:57.521Z,6.39
2016-02-22T08:51:12.855Z,6.36
2016-02-22T08:52:12.937Z,6.41
2016-02-22T08:53:12.939Z,6.36
2016-02-22T08:54:12.925Z,6.38
2016-02-22T08:55:14.414Z,6.46
2016-02-22T08:56:14.387Z,6.44
2016-02-22T08:57:32.170Z,6.52
2016-02-22T08:58:25.720Z,6.47
2016-02-22T09:00:34.836Z,6.44
2016-02-22T09:00:47.429Z,6.53
2016-02-22T09:03:00.012Z,6.57
2016-02-22T09:03:47.593Z,6.59
2016-02-22T09:05:41.177Z,6.64
2016-02-22T09:06:02.786Z,6.65
2016-02-22T09:07:47.682Z,6.64
2016-02-22T09:08:03.041Z,6.59
2016-02-22T09:09:02.841Z,6.62
2016-02-22T09:10:02.875Z,6.59
2016-02-22T09:11:02.909Z,6.52
2016-02-22T09:12:15.649Z,6.43
2016-02-22T09:13:09.211Z,6.34
2016-02-22T09:14:22.123Z,6.32
2016-02-22T09:15:22.156Z,6.32
2016-02-22T09:16:34.300Z,6.06
2016-02-22T09:17:34.318Z,6.02
2016-02-22T09:18:09.271Z,6.05
2016-02-22T09:19:22.246Z,5.91
2016-02-22T09:20:47.967Z,5.95
2016-02-22T09:22:22.472Z,5.88
2016-02-22T09:23:32.022Z,5.87
2016-02-22T09:25:39.152Z,5.83
2016-02-22T09:26:50.186Z,5.87
2016-02-22T09:28:05.361Z,5.81
2016-02-22T09:29:05.395Z,5.8
2016-02-22T09:30:18.213Z,5.76
2016-02-22T09:31:06.259Z,5.73
2016-02-22T09:32:31.233Z,5.72
2016-02-22T09:33:15.096Z,5.69
2016-02-22T09:34:34.333Z,5.69
2016-02-22T09:35:18.226Z,5.77
2016-02-22T09:37:21.466Z,5.9
2016-02-22T09:37:34.091Z,5.94
2016-02-22T09:38:34.438Z,5.92
2016-02-22T09:39:46.955Z,5.94
2016-02-22T09:40:34.115Z,5.95
2016-02-22T09:41:53.149Z,5.99
2016-02-22T09:43:02.823Z,6.06
2016-02-22T09:43:56.357Z,6.09
2016-02-22T09:45:09.078Z,6.29
2016-02-22T09:45:49.910Z,6.29
2016-02-22T09:47:49.961Z,6.34
2016-02-22T09:48:37.261Z,6.38
2016-02-22T09:50:34.235Z,6.32
2016-02-22T09:50:49.876Z,6.36
2016-02-22T09:51:46.862Z,6.34
2016-02-22T09:52:59.616Z,6.39
2016-02-22T09:53:47.102Z,6.41
2016-02-22T09:55:06.215Z,6.47
2016-02-22T09:55:53.186Z,6.44
2016-02-22T09:58:02.520Z,6.57
2016-02-22T09:59:02.195Z,6.53
2016-02-22T10:00:14.950Z,6.47
2016-02-22T10:01:03.653Z,6.43
2016-02-22T10:02:21.486Z,6.39
2016-02-22T10:03:31.098Z,6.44
2016-02-22T10:05:46.260Z,6.54
2016-02-22T10:06:46.278Z,6.54
2016-02-22T10:07:52.562Z,6.6
2016-02-22T10:08:46.315Z,6.65
2016-02-22T10:10:05.629Z,6.62
2016-02-22T10:10:46.335Z,6.5
2016-02-22T10:12:17.669Z,6.41
2016-02-22T10:12:55.919Z,6.35
2016-02-22T10:14:21.628Z,6.22
2016-02-22T10:15:05.503Z,6.12
2016-02-22T10:16:05.505Z,6.15
2016-02-22T10:17:06.117Z,6.19
2016-02-22T10:18:31.920Z,6.13
2016-02-22T10:19:15.829Z,6.19
2016-02-22T10:20:15.831Z,6.22
2016-02-22T10:21:22.131Z,6.15
2016-02-22T10:22:22.353Z,6.29
2016-02-22T10:23:28.418Z,6.26
2016-02-22T10:24:28.639Z,6.38
2016-02-22T10:25:29.251Z,6.39
2016-02-22T10:26:41.676Z,6.36
2016-02-22T10:27:15.944Z,6.49
2016-02-22T10:29:18.589Z,6.6
2016-02-22T10:29:56.871Z,6.6
2016-02-22T10:30:31.202Z,6.62
2016-02-22T10:32:46.411Z,6.78
2016-02-22T10:33:46.413Z,6.75
2016-02-22T10:35:49.044Z,6.87
2016-02-22T10:36:27.811Z,6.9
2016-02-22T10:37:02.108Z,6.93
2016-02-22T10:39:17.352Z,7.03
2016-02-22T10:40:36.588Z,7.07
2016-02-22T10:41:33.263Z,7.08
2016-02-22T10:42:46.296Z,7.08
2016-02-22T10:43:46.299Z,7.1
2016-02-22T10:45:32.821Z,7.15
2016-02-22T10:46:01.524Z,7.18
2016-02-22T10:47:01.604Z,7.19
2016-02-22T10:48:01.545Z,7.03
2016-02-22T10:49:14.298Z,7.04
2016-02-22T10:50:01.581Z,7.04
2016-02-22T10:51:20.806Z,7.03
2016-02-22T10:52:14.337Z,6.96
2016-02-22T10:53:32.936Z,6.97
2016-02-22T10:54:20.845Z,6.95
2016-02-22T10:55:32.973Z,7.04
2016-02-22T10:56:27.756Z,7.04
2016-02-22T10:57:37.306Z,7.01
2016-02-22T10:58:15.603Z,6.9
2016-02-22T11:00:18.189Z,6.89
2016-02-22T11:01:02.048Z,6.87
2016-02-22T11:01:30.754Z,6.86
2016-02-22T11:03:46.088Z,6.86
2016-02-22T11:04:45.997Z,6.87
2016-02-22T11:05:46.015Z,6.92
2016-02-22T11:06:58.767Z,6.92
2016-02-22T11:07:58.833Z,7.03
2016-02-22T11:09:11.726Z,7.03
2016-02-22T11:09:46.104Z,6.96
2016-02-22T11:11:17.405Z,7.03
2016-02-22T11:11:46.343Z,6.96
2016-02-22T11:12:46.143Z,6.95
2016-02-22T11:14:01.318Z,6.92
2016-02-22T11:15:01.399Z,6.9
2016-02-22T11:16:32.638Z,6.83
2016-02-22T11:17:10.966Z,6.87
2016-02-22T11:19:13.597Z,6.97
2016-02-22T11:19:26.396Z,6.95
2016-02-22T11:20:26.368Z,7.04
2016-02-22T11:21:39.026Z,7.07
2016-02-22T11:22:32.592Z,7.01
2016-02-22T11:23:45.532Z,7.01
2016-02-22T11:24:42.191Z,7
2016-02-22T11:26:58.212Z,7.01
2016-02-22T11:28:29.530Z,7.03
2016-02-22T11:29:04.514Z,6.95
2016-02-22T11:29:58.283Z,6.93
2016-02-22T11:30:58.285Z,7.04
2016-02-22T11:32:11.023Z,7.05
2016-02-22T11:33:11.041Z,6.97
2016-02-22T11:34:55.311Z,7
2016-02-22T11:35:58.408Z,7.05
2016-02-22T11:37:01.442Z,6.97
2016-02-22T11:38:04.694Z,7.03
2016-02-22T11:39:04.728Z,7
2016-02-22T11:40:17.516Z,6.97
2016-02-22T11:41:26.971Z,7.03
2016-02-22T11:42:20.661Z,6.97
2016-02-22T11:45:49.372Z,7
2016-02-22T11:46:49.375Z,7
2016-02-22T11:47:49.393Z,6.96
2016-02-22T11:48:49.427Z,6.96
2016-02-22T11:50:02.165Z,6.93
2016-02-22T11:50:55.715Z,7.01
2016-02-22T11:52:15.138Z,6.86
2016-02-22T11:52:49.484Z,6.9
2016-02-22T11:55:05.318Z,6.77
2016-02-22T11:56:05.321Z,6.82
2016-02-22T11:57:05.339Z,6.83
2016-02-22T11:58:18.079Z,6.67
2016-02-22T11:59:05.376Z,6.74
2016-02-22T12:00:24.584Z,6.68
2016-02-22T12:01:08.491Z,6.67
2016-02-22T12:02:34.215Z,6.8
2016-02-22T12:03:43.764Z,6.82
2016-02-22T12:04:18.127Z,6.77
2016-02-22T12:06:27.742Z,6.83
2016-02-22T12:07:27.760Z,6.82
2016-02-22T12:08:42.934Z,6.78
2016-02-22T12:09:42.999Z,6.75
2016-02-22T12:10:55.706Z,6.78
2016-02-22T12:11:55.708Z,6.85
2016-02-22T12:13:40.041Z,6.68
2016-02-22T12:14:14.869Z,6.72
2016-02-22T12:15:43.125Z,6.74
2016-02-22T12:16:27.003Z,6.68
2016-02-22T12:17:46.271Z,6.74
2016-02-22T12:19:27.136Z,6.75
2016-02-22T12:19:39.793Z,6.64
2016-02-22T12:21:49.251Z,6.62
2016-02-22T12:23:08.503Z,6.59
2016-02-22T12:23:49.304Z,6.65
2016-02-22T12:25:59.480Z,6.82
2016-02-22T12:26:59.592Z,6.77
2016-02-22T12:29:22.070Z,6.87
2016-02-22T12:30:18.759Z,6.96
2016-02-22T12:31:31.433Z,6.92
2016-02-22T12:32:24.624Z,6.97
2016-02-22T12:33:21.580Z,6.92
2016-02-22T12:36:02.475Z,6.97
2016-02-22T12:36:36.854Z,7.07
2016-02-22T12:39:17.750Z,7.04
2016-02-22T12:39:52.080Z,7.08
2016-02-22T12:40:52.098Z,7.14
2016-02-22T12:42:01.680Z,7.04
2016-02-22T12:43:27.357Z,7.08
2016-02-22T12:44:11.232Z,7.04
2016-02-22T12:45:11.280Z,7.04
2016-02-22T12:46:17.534Z,7.07
2016-02-22T12:47:11.896Z,7.05
2016-02-22T12:48:11.321Z,7.05
2016-02-22T12:49:24.279Z,7.04
2016-02-22T12:50:11.357Z,7.04
2016-02-22T12:51:30.660Z,7.08
2016-02-22T12:52:11.613Z,7.07
2016-02-22T12:53:37.185Z,7.07
2016-02-22T12:54:11.545Z,7.07
2016-02-22T12:55:11.454Z,7.07
2016-02-22T12:56:24.646Z,7.05
2016-02-22T12:57:11.475Z,6.97
2016-02-22T12:58:30.824Z,7.04
2016-02-22T12:59:11.777Z,6.97
2016-02-22T13:00:42.828Z,6.89
2016-02-22T13:01:26.614Z,6.95
2016-02-22T13:03:23.584Z,6.82
2016-02-22T13:04:33.153Z,6.77
2016-02-22T13:04:45.606Z,6.83
2016-02-22T13:06:05.061Z,6.77
2016-02-22T13:06:51.970Z,6.77
2016-02-22T13:08:08.160Z,6.8
2016-02-22T13:09:11.225Z,6.74
2016-02-22T13:09:55.119Z,6.78
2016-02-22T13:13:07.299Z,6.8
2016-02-22T13:14:07.349Z,6.78
2016-02-22T13:15:07.944Z,6.77
2016-02-22T13:16:13.619Z,6.82
2016-02-22T13:17:38.766Z,6.82
2016-02-22T13:18:24.141Z,6.74
2016-02-22T13:19:24.174Z,6.71
2016-02-22T13:20:49.867Z,6.67
2016-02-22T13:21:36.776Z,6.75
2016-02-22T13:22:59.420Z,6.75
2016-02-22T13:23:43.079Z,6.85
2016-02-22T13:25:30.771Z,6.74
2016-02-22T13:25:44.849Z,6.74
2016-02-22T13:26:44.962Z,6.83
2016-02-22T13:27:44.901Z,6.8
2016-02-22T13:29:16.217Z,6.7
2016-02-22T13:29:57.532Z,6.7
2016-02-22T13:31:25.817Z,6.72
2016-02-22T13:32:04.116Z,6.72
2016-02-22T13:33:35.370Z,6.75
2016-02-22T13:34:19.261Z,6.7
2016-02-22T13:35:44.955Z,6.71
2016-02-22T13:36:28.833Z,6.74
2016-02-22T13:37:48.085Z,6.62
2016-02-22T13:38:28.884Z,6.62
2016-02-22T13:39:54.746Z,6.65
2016-02-22T13:40:29.843Z,6.65
2016-02-22T13:41:54.611Z,6.54
2016-02-22T13:42:29.020Z,6.6
2016-02-22T13:43:54.819Z,6.52
2016-02-22T13:44:38.885Z,6.57
2016-02-22T13:46:04.497Z,6.41
2016-02-22T13:46:48.438Z,6.39
2016-02-22T13:48:07.612Z,6.44
2016-02-22T13:49:01.162Z,6.36
2016-02-22T13:50:19.743Z,6.36
2016-02-22T13:51:10.823Z,6.32
2016-02-22T13:52:22.888Z,6.32
2016-02-22T13:53:54.197Z,6.32
2016-02-22T13:54:32.644Z,6.28
2016-02-22T13:55:07.316Z,6.34
2016-02-22T13:56:36.313Z,6.28
2016-02-22T13:57:20.376Z,6.26
2016-02-22T13:59:17.882Z,6.15
2016-02-22T13:59:30.476Z,6.16
2016-02-22T14:00:43.231Z,6.17
2016-02-22T14:01:30.887Z,6.12
2016-02-22T14:02:30.530Z,6.12
2016-02-22T14:03:30.518Z,6.16
2016-02-22T14:04:30.583Z,6.1
2016-02-22T14:05:43.291Z,6.1
2016-02-22T14:06:36.857Z,6.1
2016-02-22T14:07:49.812Z,6.1
2016-02-22T14:08:36.924Z,6.12
2016-02-22T14:09:56.317Z,6.05
2016-02-22T14:10:47.290Z,6.07
2016-02-22T14:12:00.058Z,6.02
2016-02-22T14:12:47.935Z,6.1
2016-02-22T14:13:47.360Z,6.02
2016-02-22T14:14:47.394Z,6.02
2016-02-22T14:15:47.412Z,5.95
2016-02-22T14:16:47.400Z,5.95
2016-02-22T14:17:47.464Z,5.94
2016-02-22T14:18:47.436Z,5.94
2016-02-22T14:19:47.469Z,5.91
2016-02-22T14:20:47.473Z,5.91
2016-02-22T14:21:47.491Z,5.95
2016-02-22T14:22:47.525Z,5.94
2016-02-22T14:23:47.527Z,5.9
2016-02-22T14:24:53.812Z,5.79
2016-02-22T14:25:47.549Z,5.91
2016-02-22T14:26:47.583Z,5.9
2016-02-22T14:27:47.616Z,5.83
2016-02-22T14:28:47.666Z,5.94
2016-02-22T14:29:47.638Z,5.83
2016-02-22T14:30:47.671Z,5.81
2016-02-22T14:31:47.658Z,5.88
2016-02-22T14:32:47.739Z,5.83
2016-02-22T14:33:47.710Z,5.88
2016-02-22T14:34:47.729Z,5.79
2016-02-22T14:35:54.002Z,5.79
2016-02-22T14:36:47.740Z,5.88
2016-02-22T14:38:00.586Z,5.77
2016-02-22T14:38:47.776Z,5.84
2016-02-22T14:39:47.810Z,5.84
2016-02-22T14:40:47.797Z,5.9
2016-02-22T14:41:47.971Z,5.83
2016-02-22T14:43:00.599Z,5.8
2016-02-22T14:43:54.212Z,5.79
2016-02-22T14:45:07.089Z,5.76
2016-02-22T14:45:54.170Z,5.87
2016-02-22T14:47:19.219Z,5.7
2016-02-22T14:48:03.112Z,5.59
2016-02-22T14:49:22.320Z,5.65
2016-02-22T14:50:03.133Z,5.64
2016-02-22T14:51:15.856Z,5.62